Time;durP1;ratioP1;P1;durP2;ratioP2;P2;SDS_P1;SDS_P2;PMS_P1;PMS_P2;Temp;Humidity;BMP_temperature;BMP_pressure;BME280_temperature;BME280_humidity;BME280_pressure;Samples;Min_cycle;Max_cycle;Signal;HPM_P1;HPM_P2
2022/10/30 00:01:38;;;;;;;21.20;17.17;;;20.10;68.30;;;;;;5034719;28;20204;-69
2022/10/30 00:04:05;;;;;;;22.30;18.02;;;20.10;68.20;;;;;;5035381;28;20557;-69
2022/10/30 00:06:32;;;;;;;20.85;16.50;;;20.10;68.30;;;;;;5034772;28;20206;-69
2022/10/30 00:08:59;;;;;;;19.70;15.90;;;20.00;68.10;;;;;;5034572;28;20238;-69
2022/10/30 00:11:28;;;;;;;20.88;16.00;;;20.10;68.30;;;;;;5034663;28;20200;-69
2022/10/30 00:13:56;;;;;;;19.20;15.65;;;20.00;68.30;;;;;;5034691;28;20192;-69
2022/10/30 00:16:23;;;;;;;20.95;16.40;;;20.00;68.20;;;;;;5034642;28;20781;-69
2022/10/30 00:18:50;;;;;;;20.27;15.70;;;20.00;68.10;;;;;;5034454;28;20632;-69
2022/10/30 00:21:17;;;;;;;21.52;15.90;;;20.00;68.30;;;;;;5035888;28;20650;-69
2022/10/30 00:23:48;;;;;;;18.23;15.38;;;20.00;68.10;;;;;;5034295;28;20646;-69
2022/10/30 00:26:16;;;;;;;18.27;15.35;;;20.00;68.00;;;;;;5034326;28;20286;-69
2022/10/30 00:28:44;;;;;;;17.77;13.88;;;20.00;68.20;;;;;;5034392;28;20223;-69
2022/10/30 00:31:12;;;;;;;17.52;14.45;;;19.90;67.90;;;;;;5034489;28;20569;-69
2022/10/30 00:33:39;;;;;;;16.85;13.05;;;20.00;68.00;;;;;;5034495;28;20659;-69
2022/10/30 00:36:06;;;;;;;18.73;14.07;;;19.90;68.00;;;;;;5034253;28;20227;-69
2022/10/30 00:38:34;;;;;;;16.08;14.18;;;19.90;68.00;;;;;;5034194;28;20216;-69
2022/10/30 00:41:01;;;;;;;14.85;12.65;;;20.00;67.90;;;;;;5034242;28;20265;-69
2022/10/30 00:43:33;;;;;;;16.30;11.45;;;19.90;68.50;;;;;;5034217;28;20204;-69
2022/10/30 00:46:02;;;;;;;15.93;13.48;;;20.00;67.70;;;;;;5035558;28;20677;-69
2022/10/30 00:48:30;;;;;;;15.07;12.02;;;19.90;67.60;;;;;;5034096;28;20230;-69
2022/10/30 00:50:57;;;;;;;14.45;11.18;;;19.90;68.20;;;;;;5034214;28;20222;-69
2022/10/30 00:53:25;;;;;;;15.82;12.18;;;19.90;67.40;;;;;;5035290;28;20227;-69
2022/10/30 00:55:54;;;;;;;14.13;11.65;;;19.90;67.30;;;;;;5034316;28;20212;-69
2022/10/30 00:58:24;;;;;;;15.13;12.30;;;19.90;67.60;;;;;;5017264;28;20702;-69
2022/10/30 01:00:52;;;;;;;15.52;10.98;;;19.90;67.50;;;;;;5033732;28;20222;-69
2022/10/30 01:03:20;;;;;;;13.35;10.35;;;19.90;67.50;;;;;;5034239;28;20701;-69
2022/10/30 01:05:50;;;;;;;15.48;11.60;;;19.80;67.50;;;;;;5033662;28;20199;-69
2022/10/30 01:08:17;;;;;;;14.98;11.02;;;19.90;67.90;;;;;;5033797;28;20224;-69
2022/10/30 01:10:44;;;;;;;14.65;10.15;;;19.80;67.60;;;;;;5033733;28;20662;-69
2022/10/30 01:13:11;;;;;;;14.23;10.20;;;19.80;67.70;;;;;;5033795;28;20207;-69
2022/10/30 01:15:40;;;;;;;14.30;10.70;;;19.80;67.40;;;;;;5033632;28;20231;-69
2022/10/30 01:18:29;;;;;;;15.15;10.15;;;19.80;67.30;;;;;;5033708;28;20694;-69
2022/10/30 01:21:12;;;;;;;15.68;9.57;;;19.80;67.60;;;;;;5033870;28;20192;-69
2022/10/30 01:23:45;;;;;;;12.90;9.23;;;19.80;67.70;;;;;;5033585;28;20191;-68
2022/10/30 01:26:17;;;;;;;14.00;9.88;;;19.80;67.40;;;;;;5033939;28;20196;-68
2022/10/30 01:28:59;;;;;;;13.90;10.00;;;19.80;67.30;;;;;;5033527;28;20698;-68
2022/10/30 01:31:32;;;;;;;10.43;9.35;;;19.80;67.20;;;;;;5034187;28;20538;-68
2022/10/30 01:34:04;;;;;;;15.10;10.20;;;19.80;67.30;;;;;;5033727;28;20283;-68
2022/10/30 01:36:36;;;;;;;12.05;9.65;;;19.70;67.50;;;;;;5034368;28;20216;-68
2022/10/30 01:39:05;;;;;;;11.77;10.15;;;19.70;67.40;;;;;;5034910;28;20215;-68
2022/10/30 01:41:32;;;;;;;13.90;9.88;;;19.80;67.60;;;;;;5034647;28;20216;-68
2022/10/30 01:44:03;;;;;;;12.27;9.60;;;19.70;67.50;;;;;;5033357;28;20200;-68
2022/10/30 01:46:39;;;;;;;11.32;9.18;;;19.70;67.50;;;;;;5034634;28;20193;-68
2022/10/30 01:49:20;;;;;;;13.05;9.63;;;19.80;67.60;;;;;;5033348;28;20693;-68
2022/10/30 01:51:54;;;;;;;11.88;9.10;;;19.70;67.40;;;;;;5033694;28;20188;-68
2022/10/30 01:54:25;;;;;;;10.82;8.10;;;19.70;67.30;;;;;;5033237;28;20198;-68
2022/10/30 01:56:59;;;;;;;11.73;8.82;;;19.80;67.40;;;;;;5033792;28;20211;-68
2022/10/30 01:59:28;;;;;;;9.60;8.10;;;19.70;67.40;;;;;;5033109;28;20250;-68
2022/10/30 02:01:56;;;;;;;11.45;8.35;;;19.70;67.30;;;;;;5033650;28;20200;-68
2022/10/30 02:04:23;;;;;;;11.02;8.88;;;19.70;67.60;;;;;;5033137;28;20671;-68
2022/10/30 02:06:52;;;;;;;10.43;8.38;;;19.70;67.50;;;;;;5034047;28;20708;-69
2022/10/30 02:09:20;;;;;;;10.07;8.13;;;19.70;67.60;;;;;;5034845;28;20219;-68
2022/10/30 02:11:49;;;;;;;8.90;7.88;;;19.70;67.40;;;;;;5035565;28;20200;-68
2022/10/30 02:14:20;;;;;;;10.55;8.15;;;19.70;67.30;;;;;;5050673;28;20199;-68
2022/10/30 02:16:49;;;;;;;9.75;7.97;;;19.70;67.40;;;;;;5052233;28;20307;-68
2022/10/30 02:19:19;;;;;;;11.00;7.53;;;19.70;67.40;;;;;;5045209;28;20215;-68
2022/10/30 02:21:47;;;;;;;9.63;7.60;;;19.60;67.00;;;;;;5042195;28;20196;-68
2022/10/30 02:24:14;;;;;;;11.27;8.15;;;19.70;67.00;;;;;;5034529;28;20200;-68
2022/10/30 02:26:41;;;;;;;11.75;8.10;;;19.60;67.00;;;;;;5033435;28;20191;-68
2022/10/30 02:29:09;;;;;;;9.50;7.88;;;19.70;67.10;;;;;;5033378;28;20242;-68
2022/10/30 02:31:36;;;;;;;10.25;7.78;;;19.70;67.30;;;;;;5033155;28;20254;-68
2022/10/30 02:34:04;;;;;;;10.18;7.40;;;19.60;67.00;;;;;;5033273;28;20200;-68
2022/10/30 02:36:32;;;;;;;10.40;7.70;;;19.60;66.80;;;;;;5032572;28;20218;-68
2022/10/30 02:39:01;;;;;;;8.27;6.82;;;19.70;67.00;;;;;;5034449;28;20211;-69
2022/10/30 02:41:28;;;;;;;10.68;7.40;;;19.70;67.00;;;;;;5034079;28;20191;-69
2022/10/30 02:43:55;;;;;;;8.35;6.57;;;19.60;67.00;;;;;;5032637;28;20242;-69
2022/10/30 02:46:22;;;;;;;9.75;7.25;;;19.60;66.80;;;;;;5032557;28;20192;-69
2022/10/30 02:48:49;;;;;;;9.25;6.80;;;19.60;66.90;;;;;;5032496;28;20286;-69
2022/10/30 02:51:16;;;;;;;8.02;6.63;;;19.60;66.90;;;;;;5032465;28;20196;-68
2022/10/30 02:53:43;;;;;;;9.82;6.93;;;19.60;66.80;;;;;;5032414;28;20670;-68
2022/10/30 02:56:13;;;;;;;8.57;6.60;;;19.60;66.70;;;;;;5032219;28;20226;-68
2022/10/30 02:58:41;;;;;;;8.30;7.07;;;19.60;66.90;;;;;;5032914;28;20226;-68
2022/10/30 03:01:10;;;;;;;9.98;6.50;;;19.60;66.80;;;;;;5032476;28;20196;-68
2022/10/30 03:03:37;;;;;;;7.97;6.50;;;19.60;66.70;;;;;;5032096;28;20207;-68
2022/10/30 03:06:06;;;;;;;10.75;6.75;;;19.60;66.80;;;;;;5031911;28;20200;-68
2022/10/30 03:08:33;;;;;;;8.35;6.22;;;19.60;66.70;;;;;;5032330;28;20254;-68
2022/10/30 03:11:01;;;;;;;8.27;6.63;;;19.60;66.70;;;;;;5032316;28;20227;-68
2022/10/30 03:13:31;;;;;;;8.13;6.18;;;19.60;66.70;;;;;;5032205;28;20200;-68
2022/10/30 03:16:02;;;;;;;10.48;6.38;;;19.60;66.80;;;;;;5032010;28;20220;-68
2022/10/30 03:18:31;;;;;;;8.18;5.80;;;19.60;66.40;;;;;;5032256;28;20239;-68
2022/10/30 03:21:03;;;;;;;8.35;6.20;;;19.50;66.50;;;;;;5032090;28;20204;-68
2022/10/30 03:23:34;;;;;;;9.02;6.15;;;19.50;66.50;;;;;;5033428;28;20192;-68
2022/10/30 03:26:22;;;;;;;8.82;5.75;;;19.50;66.40;;;;;;5033755;28;20242;-68
2022/10/30 03:28:56;;;;;;;7.53;5.97;;;19.60;66.30;;;;;;5017063;28;20227;-68
2022/10/30 03:31:24;;;;;;;7.55;6.03;;;19.50;66.30;;;;;;5033505;28;20271;-68
2022/10/30 03:34:08;;;;;;;9.68;5.78;;;19.50;66.10;;;;;;5035498;28;20183;-68
2022/10/30 03:36:36;;;;;;;8.45;5.97;;;19.50;66.00;;;;;;5035290;28;20212;-68
2022/10/30 03:39:03;;;;;;;8.30;5.95;;;19.50;66.40;;;;;;5035383;28;20686;-68
2022/10/30 03:41:31;;;;;;;6.55;5.40;;;19.50;66.10;;;;;;5036355;28;20548;-68
2022/10/30 03:44:00;;;;;;;7.45;5.72;;;19.50;66.20;;;;;;5035362;28;20254;-68
2022/10/30 03:46:29;;;;;;;7.82;5.82;;;19.50;66.30;;;;;;5035463;28;20235;-68
2022/10/30 03:49:05;;;;;;;6.60;5.30;;;19.50;66.10;;;;;;5035425;28;20274;-68
2022/10/30 03:51:32;;;;;;;7.63;6.05;;;19.50;66.20;;;;;;5035424;28;20224;-68
2022/10/30 03:53:59;;;;;;;7.60;5.68;;;19.50;66.30;;;;;;5035605;28;20291;-68
2022/10/30 03:56:26;;;;;;;7.10;5.70;;;19.50;66.20;;;;;;5035049;28;20238;-68
2022/10/30 03:58:59;;;;;;;8.10;5.78;;;19.50;66.20;;;;;;5035192;28;20219;-68
2022/10/30 04:01:28;;;;;;;7.53;5.35;;;19.40;66.10;;;;;;5035966;28;20207;-68
2022/10/30 04:03:57;;;;;;;7.32;5.70;;;19.40;66.20;;;;;;5036332;28;20200;-68
2022/10/30 04:06:25;;;;;;;7.85;5.40;;;19.40;65.70;;;;;;5069943;22;20238;-71
2022/10/30 04:08:54;;;;;;;8.68;5.80;;;19.40;65.80;;;;;;5035659;28;20311;-71
2022/10/30 04:11:21;;;;;;;7.93;5.22;;;19.40;65.70;;;;;;5035067;28;20255;-71
2022/10/30 04:13:48;;;;;;;7.05;5.53;;;19.40;65.80;;;;;;5034914;28;20211;-71
2022/10/30 04:16:17;;;;;;;7.70;5.72;;;19.40;65.90;;;;;;5035076;28;20548;-71
2022/10/30 04:18:45;;;;;;;7.45;5.07;;;19.40;66.00;;;;;;5034357;28;20274;-71
2022/10/30 04:21:12;;;;;;;8.35;5.32;;;19.40;65.90;;;;;;5034272;28;20208;-71
2022/10/30 04:23:39;;;;;;;5.93;5.32;;;19.40;66.40;;;;;;5034221;28;20283;-71
2022/10/30 04:26:09;;;;;;;7.60;5.55;;;19.40;66.60;;;;;;5034351;28;20243;-71
2022/10/30 04:28:39;;;;;;;7.28;5.65;;;19.40;66.70;;;;;;5034979;28;20212;-71
2022/10/30 04:31:06;;;;;;;6.13;4.90;;;19.40;66.50;;;;;;5034297;28;20196;-71
2022/10/30 04:33:35;;;;;;;6.95;4.95;;;19.50;66.40;;;;;;5034615;28;20198;-71
2022/10/30 04:36:02;;;;;;;8.88;5.28;;;19.50;65.90;;;;;;5034312;28;20216;-72
2022/10/30 04:38:31;;;;;;;7.85;5.32;;;19.60;65.90;;;;;;5033919;28;20219;-72
2022/10/30 04:40:59;;;;;;;6.43;5.55;;;19.60;65.50;;;;;;5034586;28;20247;-72
2022/10/30 04:43:40;;;;;;;5.78;5.03;;;19.60;65.70;;;;;;5049251;22;20188;-70
2022/10/30 04:46:08;;;;;;;6.60;5.13;;;19.60;65.60;;;;;;5063020;22;20224;-71
2022/10/30 04:48:41;;;;;;;8.15;4.97;;;19.70;65.50;;;;;;5080167;22;20223;-70
2022/10/30 04:51:10;;;;;;;6.53;5.05;;;19.70;65.20;;;;;;5034197;28;20200;-70
2022/10/30 04:53:38;;;;;;;5.95;4.65;;;19.70;65.00;;;;;;5034509;28;20712;-69
2022/10/30 04:56:11;;;;;;;5.68;5.10;;;19.80;65.00;;;;;;5034380;28;20572;-69
2022/10/30 04:58:38;;;;;;;5.97;5.00;;;19.80;65.00;;;;;;5033982;28;20216;-70
2022/10/30 05:01:08;;;;;;;5.72;4.90;;;19.80;64.70;;;;;;5034357;28;20348;-69
2022/10/30 05:03:37;;;;;;;5.53;4.80;;;19.80;64.60;;;;;;5033776;28;20558;-68
2022/10/30 05:06:16;;;;;;;6.45;5.32;;;19.80;64.60;;;;;;5034901;28;20196;-69
2022/10/30 05:08:43;;;;;;;6.20;4.68;;;19.80;64.40;;;;;;5033958;28;20216;-69
2022/10/30 05:11:20;;;;;;;6.80;5.07;;;19.90;64.40;;;;;;5033784;28;20202;-69
2022/10/30 05:13:47;;;;;;;6.07;4.70;;;19.90;64.30;;;;;;5033722;28;20203;-69
2022/10/30 05:16:16;;;;;;;5.32;4.80;;;19.90;64.30;;;;;;5083494;22;20223;-68
2022/10/30 05:18:45;;;;;;;6.90;5.00;;;19.80;64.00;;;;;;5032803;28;20273;-68
2022/10/30 05:21:12;;;;;;;6.13;4.80;;;19.90;64.10;;;;;;5033100;28;20196;-68
2022/10/30 05:23:40;;;;;;;7.95;5.00;;;19.80;64.00;;;;;;5033023;28;20199;-69
2022/10/30 05:26:07;;;;;;;6.85;4.60;;;19.80;64.00;;;;;;5033291;28;20204;-68
2022/10/30 05:28:34;;;;;;;7.60;4.57;;;19.80;64.10;;;;;;5032757;28;20199;-68
2022/10/30 05:31:01;;;;;;;7.03;4.88;;;19.80;64.40;;;;;;5033327;28;20279;-69
2022/10/30 05:33:59;;;;;;;6.95;4.47;;;19.80;64.00;;;;;;4998651;28;20216;-68
2022/10/30 05:36:26;;;;;;;6.78;4.40;;;19.80;64.00;;;;;;5032599;28;20270;-68
2022/10/30 05:38:53;;;;;;;5.97;4.75;;;19.80;64.00;;;;;;5032519;28;20234;-68
2022/10/30 05:41:36;;;;;;;5.68;4.68;;;19.80;64.10;;;;;;5032815;28;20200;-68
2022/10/30 05:44:03;;;;;;;7.05;4.35;;;19.70;63.90;;;;;;5032673;28;20196;-68
2022/10/30 05:46:31;;;;;;;4.78;4.03;;;19.70;64.00;;;;;;5033505;28;20667;-68
2022/10/30 05:49:09;;;;;;;7.47;4.35;;;19.70;64.20;;;;;;5033492;28;20576;-68
2022/10/30 05:51:37;;;;;;;6.40;4.60;;;19.70;64.10;;;;;;5033355;28;20238;-68
2022/10/30 05:54:05;;;;;;;6.85;4.63;;;19.70;64.30;;;;;;5033922;28;20621;-68
2022/10/30 05:56:35;;;;;;;6.47;4.53;;;19.60;63.80;;;;;;5034181;28;20702;-68
2022/10/30 05:59:02;;;;;;;4.93;4.43;;;19.70;63.90;;;;;;5052555;28;20220;-67
2022/10/30 06:01:29;;;;;;;6.20;4.70;;;19.60;63.80;;;;;;5088098;22;20529;-69
2022/10/30 06:03:59;;;;;;;4.65;4.07;;;19.60;63.90;;;;;;5033029;28;20196;-68
2022/10/30 06:06:28;;;;;;;6.13;4.45;;;19.60;64.10;;;;;;5033748;28;20283;-68
2022/10/30 06:08:55;;;;;;;6.00;4.20;;;19.60;64.10;;;;;;5032631;28;20223;-68
2022/10/30 06:11:51;;;;;;;6.13;4.32;;;19.60;63.80;;;;;;5032625;28;20275;-68
2022/10/30 06:14:21;;;;;;;5.72;4.68;;;19.50;63.80;;;;;;5033519;28;20279;-68
2022/10/30 06:16:51;;;;;;;6.38;4.85;;;19.60;63.90;;;;;;5032411;28;20262;-68
2022/10/30 06:19:49;;;;;;;6.80;4.50;;;19.60;63.80;;;;;;5033786;28;20184;-67
2022/10/30 06:22:37;;;;;;;6.22;4.00;;;19.50;63.70;;;;;;5013397;28;20235;-67
2022/10/30 06:25:14;;;;;;;5.28;4.18;;;19.50;63.70;;;;;;5032726;28;20196;-68
2022/10/30 06:27:58;;;;;;;5.85;4.45;;;19.50;63.70;;;;;;5032566;28;20839;-68
2022/10/30 06:30:26;;;;;;;4.55;4.15;;;19.50;63.70;;;;;;5032569;28;20196;-68
2022/10/30 06:32:56;;;;;;;5.95;4.20;;;19.50;64.50;;;;;;5032580;28;20332;-66
2022/10/30 06:35:23;;;;;;;6.75;4.22;;;19.50;63.70;;;;;;5033121;28;20199;-66
2022/10/30 06:37:54;;;;;;;5.72;4.10;;;19.50;63.70;;;;;;5033541;28;20317;-66
2022/10/30 06:40:21;;;;;;;4.40;3.67;;;19.50;63.70;;;;;;5032597;28;20188;-66
2022/10/30 06:43:02;;;;;;;5.05;4.40;;;19.50;63.70;;;;;;5032852;28;20196;-68
2022/10/30 06:45:35;;;;;;;4.85;3.92;;;19.50;63.70;;;;;;5033716;28;20257;-68
2022/10/30 06:48:02;;;;;;;6.40;4.20;;;19.50;63.70;;;;;;5032542;28;20212;-68
2022/10/30 06:50:33;;;;;;;4.63;3.97;;;19.50;63.70;;;;;;5032611;28;20219;-68
2022/10/30 06:53:02;;;;;;;5.55;4.32;;;19.50;63.60;;;;;;5032602;28;20192;-69
2022/10/30 06:55:29;;;;;;;6.15;4.00;;;19.50;63.70;;;;;;5032619;28;20225;-69
2022/10/30 06:58:14;;;;;;;4.95;4.35;;;19.60;63.80;;;;;;5033712;28;20234;-69
2022/10/30 07:01:02;;;;;;;5.35;4.00;;;19.60;63.80;;;;;;5026164;28;20200;-68
2022/10/30 07:03:41;;;;;;;5.00;3.85;;;19.60;64.60;;;;;;5032638;28;20214;-69
2022/10/30 07:06:08;;;;;;;6.55;3.95;;;19.60;63.80;;;;;;5032995;28;20263;-68
2022/10/30 07:08:38;;;;;;;6.78;4.70;;;19.60;63.80;;;;;;5036185;28;20216;-69
2022/10/30 07:11:06;;;;;;;6.05;3.65;;;19.60;63.70;;;;;;5036879;28;20211;-69
2022/10/30 07:13:33;;;;;;;4.50;4.07;;;19.60;63.70;;;;;;5039297;28;20200;-69
2022/10/30 07:16:27;;;;;;;5.85;3.95;;;19.60;63.30;;;;;;5035528;28;20207;-69
2022/10/30 07:18:55;;;;;;;5.03;3.80;;;19.60;63.30;;;;;;5036655;28;20232;-69
2022/10/30 07:21:22;;;;;;;6.55;3.90;;;19.60;63.20;;;;;;5036078;28;20192;-69
2022/10/30 07:23:50;;;;;;;5.25;4.00;;;19.60;63.30;;;;;;5036069;28;20235;-69
2022/10/30 07:26:24;;;;;;;6.68;3.97;;;19.70;64.20;;;;;;5036113;28;20195;-69
2022/10/30 07:28:53;;;;;;;4.13;3.72;;;19.70;63.20;;;;;;5036006;28;20233;-69
2022/10/30 07:31:25;;;;;;;5.18;4.18;;;19.70;63.20;;;;;;5035782;28;20203;-69
2022/10/30 07:33:52;;;;;;;5.63;3.97;;;19.70;63.10;;;;;;5036802;28;20612;-68
2022/10/30 07:36:42;;;;;;;5.43;4.15;;;19.70;63.00;;;;;;5074155;28;20234;-71
2022/10/30 07:39:28;;;;;;;5.30;3.95;;;19.70;63.20;;;;;;5056248;28;20195;-71
2022/10/30 07:42:18;;;;;;;6.13;3.90;;;19.80;63.20;;;;;;5056426;28;20199;-71
2022/10/30 07:45:07;;;;;;;5.50;4.05;;;19.80;63.10;;;;;;5056415;28;20200;-71
2022/10/30 07:47:56;;;;;;;6.10;3.97;;;19.80;62.90;;;;;;5055302;28;20215;-71
2022/10/30 07:50:34;;;;;;;6.00;4.07;;;19.90;62.90;;;;;;5056002;28;20199;-70
2022/10/30 07:53:01;;;;;;;5.80;4.00;;;20.00;62.90;;;;;;5054881;28;20295;-70
2022/10/30 07:55:33;;;;;;;7.30;4.15;;;20.10;62.60;;;;;;5055211;28;20282;-70
2022/10/30 07:58:00;;;;;;;4.60;3.97;;;20.20;62.50;;;;;;5056122;28;20224;-70
2022/10/30 08:00:56;;;;;;;4.57;3.90;;;20.30;62.30;;;;;;5007121;28;20220;-70
2022/10/30 08:03:30;;;;;;;5.40;3.60;;;20.50;62.00;;;;;;5054834;28;20540;-70
2022/10/30 08:06:20;;;;;;;6.15;3.90;;;20.70;61.70;;;;;;5090731;22;20748;-68
2022/10/30 08:08:47;;;;;;;5.22;3.75;;;20.90;61.10;;;;;;5034757;28;20212;-68
2022/10/30 08:11:24;;;;;;;5.30;4.00;;;21.10;60.40;;;;;;5035182;28;20249;-68
2022/10/30 08:13:53;;;;;;;4.65;3.80;;;21.30;59.90;;;;;;5035602;28;20192;-68
2022/10/30 08:16:20;;;;;;;5.18;3.90;;;21.50;59.50;;;;;;5035115;28;20188;-68
2022/10/30 08:18:49;;;;;;;5.90;3.80;;;21.70;59.10;;;;;;5033884;28;20293;-68
2022/10/30 08:21:19;;;;;;;5.40;3.85;;;21.80;58.80;;;;;;5034941;28;20192;-68
2022/10/30 08:24:07;;;;;;;4.40;3.90;;;21.90;58.50;;;;;;5035533;28;20636;-69
2022/10/30 08:26:36;;;;;;;7.45;3.50;;;22.00;58.30;;;;;;5034651;28;20208;-68
2022/10/30 08:29:03;;;;;;;7.05;4.20;;;22.00;58.00;;;;;;5034518;28;20212;-69
2022/10/30 08:31:31;;;;;;;5.95;3.80;;;22.10;57.90;;;;;;5034330;28;20548;-69
2022/10/30 08:34:01;;;;;;;5.05;3.50;;;22.20;57.70;;;;;;5036021;28;20279;-68
2022/10/30 08:36:54;;;;;;;3.97;3.58;;;22.20;57.60;;;;;;5033767;28;20450;-69
2022/10/30 08:39:23;;;;;;;4.90;3.72;;;22.30;57.30;;;;;;5034495;28;20196;-69
2022/10/30 08:42:00;;;;;;;4.13;3.30;;;22.30;57.20;;;;;;5034428;28;20223;-69
2022/10/30 08:44:34;;;;;;;4.07;3.30;;;22.40;57.10;;;;;;5034991;28;20195;-69
2022/10/30 08:47:16;;;;;;;6.97;3.88;;;22.40;56.90;;;;;;5035736;28;20231;-69
2022/10/30 08:49:43;;;;;;;4.63;3.45;;;22.50;56.70;;;;;;5034457;28;20192;-68
2022/10/30 08:52:11;;;;;;;5.25;3.63;;;22.50;56.60;;;;;;5034264;28;20662;-68
2022/10/30 08:54:39;;;;;;;4.65;3.83;;;22.60;56.60;;;;;;5034358;28;20196;-68
2022/10/30 08:57:07;;;;;;;4.88;3.70;;;22.60;56.60;;;;;;5034243;28;20572;-68
2022/10/30 08:59:35;;;;;;;5.50;3.67;;;22.60;56.50;;;;;;5033985;28;20200;-68
2022/10/30 09:02:02;;;;;;;5.05;3.95;;;22.70;56.40;;;;;;5034194;28;20288;-68
2022/10/30 09:04:48;;;;;;;4.82;3.60;;;22.60;56.30;;;;;;5036448;28;20195;-68
2022/10/30 09:07:35;;;;;;;4.80;3.67;;;22.60;56.30;;;;;;5034771;28;20270;-68
2022/10/30 09:10:02;;;;;;;3.83;3.10;;;22.60;56.50;;;;;;5035115;28;20666;-68
2022/10/30 09:12:34;;;;;;;4.00;3.60;;;22.50;56.50;;;;;;5034557;28;20258;-68
2022/10/30 09:15:01;;;;;;;4.10;3.40;;;22.50;56.70;;;;;;5033861;28;20297;-68
2022/10/30 09:17:30;;;;;;;4.68;3.35;;;22.40;56.80;;;;;;5033709;28;20218;-68
2022/10/30 09:19:57;;;;;;;4.38;3.40;;;22.40;56.90;;;;;;5033793;28;20203;-69
2022/10/30 09:22:33;;;;;;;4.38;3.47;;;22.30;57.00;;;;;;5034436;28;20526;-69
2022/10/30 09:25:02;;;;;;;4.38;3.55;;;22.30;57.20;;;;;;5033698;28;20203;-69
2022/10/30 09:27:47;;;;;;;4.13;3.30;;;22.30;57.30;;;;;;5033844;28;20246;-69
2022/10/30 09:30:16;;;;;;;4.47;3.58;;;22.20;57.40;;;;;;5017644;28;20200;-68
2022/10/30 09:32:46;;;;;;;4.07;3.20;;;22.20;57.80;;;;;;5033440;28;20192;-68
2022/10/30 09:35:18;;;;;;;8.23;3.53;;;22.20;57.70;;;;;;5033403;28;20195;-68
2022/10/30 09:37:46;;;;;;;8.30;3.47;;;22.20;57.80;;;;;;5016757;28;20717;-68
2022/10/30 09:40:21;;;;;;;6.45;3.80;;;22.20;58.20;;;;;;5033072;28;20672;-68
2022/10/30 09:42:50;;;;;;;143.38;117.65;;;22.20;58.20;;;;;;5033971;28;20279;-69
2022/10/30 09:45:48;;;;;;;277.67;218.55;;;22.20;58.70;;;;;;5032992;28;20206;-69
2022/10/30 09:48:38;;;;;;;237.82;191.07;;;22.20;58.90;;;;;;4963173;28;20214;-69
2022/10/30 09:51:21;;;;;;;259.85;206.48;;;22.10;58.70;;;;;;5033269;28;20192;-70
2022/10/30 09:53:57;;;;;;;246.48;202.00;;;22.20;59.10;;;;;;5033082;28;20199;-69
2022/10/30 09:56:31;;;;;;;215.55;187.70;;;22.20;59.30;;;;;;5033424;28;20200;-69
2022/10/30 09:59:04;;;;;;;235.20;192.82;;;22.20;59.40;;;;;;5033139;28;20224;-69
2022/10/30 10:01:34;;;;;;;230.23;197.98;;;22.20;59.60;;;;;;5032973;28;20525;-69
2022/10/30 10:04:08;;;;;;;228.13;186.48;;;22.20;59.80;;;;;;5034410;28;20190;-69
2022/10/30 10:06:57;;;;;;;200.98;165.50;;;22.20;59.60;;;;;;5033902;28;20212;-68
2022/10/30 10:09:40;;;;;;;207.00;163.05;;;22.20;59.50;;;;;;5032869;28;20279;-69
2022/10/30 10:12:21;;;;;;;194.57;156.02;;;22.20;59.40;;;;;;5033227;28;20202;-69
2022/10/30 10:14:49;;;;;;;195.57;153.15;;;22.20;59.40;;;;;;5033051;28;20231;-69
2022/10/30 10:17:19;;;;;;;189.52;150.25;;;22.20;59.70;;;;;;5032527;28;20220;-69
2022/10/30 10:19:49;;;;;;;182.77;149.27;;;22.20;59.60;;;;;;5032555;28;20591;-69
2022/10/30 10:22:20;;;;;;;190.75;141.88;;;22.20;59.60;;;;;;5032555;28;20290;-69
2022/10/30 10:24:47;;;;;;;170.65;137.77;;;22.20;59.50;;;;;;5033340;28;20280;-69
2022/10/30 10:27:37;;;;;;;165.05;137.35;;;22.10;59.60;;;;;;5033960;28;20212;-69
2022/10/30 10:30:08;;;;;;;165.63;136.13;;;22.10;59.70;;;;;;5032613;28;20200;-69
2022/10/30 10:32:48;;;;;;;155.02;129.07;;;22.10;59.80;;;;;;5032592;28;20184;-69
2022/10/30 10:35:51;;;;;;;156.15;124.90;;;22.10;59.90;;;;;;5032686;28;20211;-69
2022/10/30 10:38:25;;;;;;;149.45;123.90;;;22.10;59.90;;;;;;5019656;28;20565;-69
2022/10/30 10:40:56;;;;;;;133.80;112.45;;;22.10;59.80;;;;;;5033540;28;20206;-69
2022/10/30 10:43:28;;;;;;;133.68;112.43;;;22.10;59.90;;;;;;5035372;28;20662;-69
2022/10/30 10:46:12;;;;;;;122.00;101.47;;;22.10;59.90;;;;;;5020348;28;20203;-69
2022/10/30 10:48:48;;;;;;;125.72;102.60;;;22.10;59.90;;;;;;5036510;28;20220;-69
2022/10/30 10:51:16;;;;;;;123.50;107.63;;;22.10;59.60;;;;;;5037228;28;20473;-69
2022/10/30 10:53:44;;;;;;;111.22;93.15;;;22.20;59.80;;;;;;5036439;28;20202;-69
2022/10/30 10:56:11;;;;;;;114.20;96.45;;;22.20;59.90;;;;;;5036319;28;20195;-69
2022/10/30 10:58:41;;;;;;;111.75;90.03;;;22.20;60.00;;;;;;5037465;28;20219;-69
2022/10/30 11:01:13;;;;;;;111.85;89.68;;;22.20;59.90;;;;;;5036289;28;20228;-69
2022/10/30 11:03:46;;;;;;;102.57;84.93;;;22.20;59.90;;;;;;5036250;28;20557;-69
2022/10/30 11:08:41;;;;;;;86.00;70.82;;;22.30;60.40;;;;;;5016335;28;20221;-67
2022/10/30 11:11:08;;;;;;;71.10;57.22;;;22.30;60.10;;;;;;5016630;28;20205;-68
2022/10/30 11:13:36;;;;;;;69.00;53.97;;;22.30;60.10;;;;;;5017263;28;20625;-68
2022/10/30 11:16:08;;;;;;;49.50;39.05;;;22.30;59.60;;;;;;5015836;28;20201;-68
2022/10/30 11:18:36;;;;;;;36.70;27.80;;;22.30;59.60;;;;;;5016288;28;20399;-69
2022/10/30 11:21:04;;;;;;;19.80;13.05;;;22.30;59.30;;;;;;5016279;28;20702;-68
2022/10/30 11:23:32;;;;;;;17.27;10.90;;;22.30;59.30;;;;;;5017120;28;20275;-68
2022/10/30 11:26:03;;;;;;;13.13;8.77;;;22.30;59.20;;;;;;5016977;28;20188;-68
2022/10/30 11:28:40;;;;;;;13.52;8.00;;;22.30;58.90;;;;;;5015751;28;20200;-68
2022/10/30 11:31:33;;;;;;;10.35;5.95;;;22.30;59.00;;;;;;5015838;28;20605;-68
2022/10/30 11:34:23;;;;;;;10.40;6.47;;;22.30;59.00;;;;;;5012770;28;20606;-68
2022/10/30 11:36:51;;;;;;;8.77;6.05;;;22.30;58.90;;;;;;5017190;28;20189;-69
2022/10/30 11:39:19;;;;;;;11.80;6.15;;;22.30;58.90;;;;;;5015687;28;20259;-68
2022/10/30 11:41:47;;;;;;;11.18;6.22;;;22.30;58.80;;;;;;5016977;28;20193;-68
2022/10/30 11:44:14;;;;;;;10.38;5.85;;;22.30;58.90;;;;;;5015580;28;20201;-68
2022/10/30 11:46:41;;;;;;;7.05;4.78;;;22.30;58.90;;;;;;5015830;28;20223;-69
2022/10/30 11:49:27;;;;;;;9.30;5.18;;;22.40;58.90;;;;;;5015723;28;20287;-68
2022/10/30 11:51:54;;;;;;;7.90;4.78;;;22.40;58.90;;;;;;5015888;28;20193;-68
2022/10/30 11:54:21;;;;;;;8.27;4.80;;;22.40;58.80;;;;;;5014906;28;20521;-69
2022/10/30 11:56:49;;;;;;;7.22;4.28;;;22.40;58.80;;;;;;5020624;28;20659;-70
2022/10/30 11:59:18;;;;;;;9.05;4.38;;;22.40;58.60;;;;;;5074828;22;20246;-69
2022/10/30 12:01:58;;;;;;;9.10;4.45;;;22.40;58.70;;;;;;5077922;22;20282;-66
2022/10/30 12:04:27;;;;;;;8.32;4.78;;;22.40;58.70;;;;;;5034800;28;20196;-67
2022/10/30 12:07:06;;;;;;;6.93;4.10;;;22.40;58.70;;;;;;5036170;28;20271;-68
2022/10/30 12:09:41;;;;;;;6.93;3.92;;;22.40;58.80;;;;;;5034983;28;20212;-66
2022/10/30 12:12:11;;;;;;;7.20;4.57;;;22.40;58.90;;;;;;5034895;28;20223;-66
2022/10/30 12:14:38;;;;;;;8.98;4.93;;;22.40;59.90;;;;;;5036234;28;20335;-66
2022/10/30 12:17:05;;;;;;;8.23;5.20;;;22.40;59.80;;;;;;5036759;28;20202;-66
2022/10/30 12:19:33;;;;;;;10.52;7.25;;;22.40;59.90;;;;;;5035816;28;20233;-66
2022/10/30 12:22:01;;;;;;;13.10;8.50;;;22.30;59.90;;;;;;5034459;28;20204;-66
2022/10/30 12:24:30;;;;;;;16.25;10.43;;;22.40;60.10;;;;;;5034227;28;20223;-67
2022/10/30 12:26:57;;;;;;;18.33;10.30;;;22.40;60.40;;;;;;5035728;28;20350;-65
2022/10/30 12:29:25;;;;;;;11.35;10.10;;;22.30;60.50;;;;;;5034308;28;20216;-68
2022/10/30 12:31:55;;;;;;;14.40;9.93;;;22.40;60.80;;;;;;5059233;22;20224;-71
2022/10/30 12:34:33;;;;;;;13.18;8.93;;;22.40;61.00;;;;;;5035600;28;20562;-71
2022/10/30 12:37:04;;;;;;;12.45;7.75;;;22.40;61.20;;;;;;5034229;28;20274;-71
2022/10/30 12:39:35;;;;;;;11.75;7.88;;;22.40;61.50;;;;;;5034217;28;20212;-71
2022/10/30 12:42:05;;;;;;;11.90;7.70;;;22.40;61.70;;;;;;5086552;22;20318;-67
2022/10/30 12:44:33;;;;;;;9.40;7.25;;;22.40;61.70;;;;;;5035158;28;20196;-68
2022/10/30 12:47:02;;;;;;;8.82;6.53;;;22.40;61.90;;;;;;5035135;28;20200;-67
2022/10/30 12:49:35;;;;;;;10.35;7.38;;;22.30;62.30;;;;;;5033578;28;20749;-68
2022/10/30 12:52:05;;;;;;;11.93;8.15;;;22.30;62.30;;;;;;5033748;28;20184;-67
2022/10/30 12:54:35;;;;;;;13.57;9.48;;;22.30;62.50;;;;;;5034303;28;20184;-68
2022/10/30 12:57:07;;;;;;;13.32;10.23;;;22.30;62.60;;;;;;5034882;28;20279;-68
2022/10/30 12:59:39;;;;;;;14.77;11.00;;;22.30;62.80;;;;;;5033656;28;20330;-68
2022/10/30 13:02:13;;;;;;;16.48;13.20;;;22.30;63.10;;;;;;5034789;28;20176;-68
2022/10/30 13:04:43;;;;;;;17.63;13.32;;;22.40;63.50;;;;;;5034400;28;20207;-68